sensor_id;sensor_type;location;lat;lon;timestamp;P1;durP1;ratioP1;P2;durP2;ratioP2
64550;SDS011;74341;44.510;-123.270;2024-01-30T00:00:04;10.52;;;6.50;;
64550;SDS011;74341;44.510;-123.270;2024-01-30T00:02:31;8.02;;;5.65;;
64550;SDS011;74341;44.510;-123.270;2024-01-30T00:04:58;8.25;;;5.63;;
64550;SDS011;74341;44.510;-123.270;2024-01-30T00:07:24;8.93;;;5.90;;
64550;SDS011;74341;44.510;-123.270;2024-01-30T00:09:50;7.45;;;4.88;;
64550;SDS011;74341;44.510;-123.270;2024-01-30T00:12:16;10.60;;;6.00;;
64550;SDS011;74341;44.510;-123.270;2024-01-30T00:14:43;9.40;;;5.72;;
64550;SDS011;74341;44.510;-123.270;2024-01-30T00:17:09;11.40;;;6.80;;
64550;SDS011;74341;44.510;-123.270;2024-01-30T00:19:35;10.77;;;7.60;;
64550;SDS011;74341;44.510;-123.270;2024-01-30T00:22:02;11.30;;;6.38;;
64550;SDS011;74341;44.510;-123.270;2024-01-30T00:24:28;9.07;;;5.95;;
64550;SDS011;74341;44.510;-123.270;2024-01-30T00:26:55;8.35;;;5.10;;
64550;SDS011;74341;44.510;-123.270;2024-01-30T00:29:21;6.82;;;4.85;;
64550;SDS011;74341;44.510;-123.270;2024-01-30T00:31:48;10.50;;;4.90;;
64550;SDS011;74341;44.510;-123.270;2024-01-30T00:34:14;8.18;;;4.90;;
64550;SDS011;74341;44.510;-123.270;2024-01-30T00:36:40;8.70;;;5.53;;
64550;SDS011;74341;44.510;-123.270;2024-01-30T00:39:07;6.78;;;4.70;;
64550;SDS011;74341;44.510;-123.270;2024-01-30T00:41:34;9.10;;;4.40;;
64550;SDS011;74341;44.510;-123.270;2024-01-30T00:44:00;5.80;;;4.43;;
64550;SDS011;74341;44.510;-123.270;2024-01-30T00:46:27;8.65;;;5.03;;
64550;SDS011;74341;44.510;-123.270;2024-01-30T00:48:53;9.05;;;5.53;;
64550;SDS011;74341;44.510;-123.270;2024-01-30T00:51:19;10.52;;;6.20;;
64550;SDS011;74341;44.510;-123.270;2024-01-30T00:53:46;7.18;;;5.00;;
64550;SDS011;74341;44.510;-123.270;2024-01-30T00:56:12;8.52;;;5.43;;
64550;SDS011;74341;44.510;-123.270;2024-01-30T00:58:38;5.43;;;4.18;;
64550;SDS011;74341;44.510;-123.270;2024-01-30T01:01:05;4.97;;;4.00;;
64550;SDS011;74341;44.510;-123.270;2024-01-30T01:03:32;4.13;;;3.25;;
64550;SDS011;74341;44.510;-123.270;2024-01-30T01:05:59;4.57;;;3.90;;
64550;SDS011;74341;44.510;-123.270;2024-01-30T01:08:25;3.35;;;2.83;;
64550;SDS011;74341;44.510;-123.270;2024-01-30T01:10:52;4.57;;;3.50;;
64550;SDS011;74341;44.510;-123.270;2024-01-30T01:15:45;4.47;;;3.00;;
64550;SDS011;74341;44.510;-123.270;2024-01-30T01:18:11;5.75;;;3.13;;
64550;SDS011;74341;44.510;-123.270;2024-01-30T01:20:38;3.95;;;3.00;;
64550;SDS011;74341;44.510;-123.270;2024-01-30T01:23:08;5.15;;;3.17;;
64550;SDS011;74341;44.510;-123.270;2024-01-30T01:25:34;4.68;;;3.55;;
64550;SDS011;74341;44.510;-123.270;2024-01-30T01:28:00;5.13;;;3.92;;
64550;SDS011;74341;44.510;-123.270;2024-01-30T01:30:27;5.05;;;3.97;;
64550;SDS011;74341;44.510;-123.270;2024-01-30T01:32:54;4.70;;;3.80;;
64550;SDS011;74341;44.510;-123.270;2024-01-30T01:35:22;6.50;;;3.75;;
64550;SDS011;74341;44.510;-123.270;2024-01-30T01:37:53;5.00;;;3.80;;
64550;SDS011;74341;44.510;-123.270;2024-01-30T01:40:25;5.80;;;4.05;;
64550;SDS011;74341;44.510;-123.270;2024-01-30T01:42:53;5.50;;;4.38;;
64550;SDS011;74341;44.510;-123.270;2024-01-30T01:45:20;3.63;;;3.33;;
64550;SDS011;74341;44.510;-123.270;2024-01-30T01:47:47;5.32;;;3.90;;
64550;SDS011;74341;44.510;-123.270;2024-01-30T01:50:17;4.65;;;3.30;;
64550;SDS011;74341;44.510;-123.270;2024-01-30T01:52:49;5.68;;;3.50;;
64550;SDS011;74341;44.510;-123.270;2024-01-30T01:55:16;5.35;;;3.53;;
64550;SDS011;74341;44.510;-123.270;2024-01-30T01:57:46;5.40;;;3.47;;
64550;SDS011;74341;44.510;-123.270;2024-01-30T02:00:13;5.35;;;4.05;;
64550;SDS011;74341;44.510;-123.270;2024-01-30T02:02:39;4.60;;;3.50;;
64550;SDS011;74341;44.510;-123.270;2024-01-30T02:05:09;6.65;;;3.85;;
64550;SDS011;74341;44.510;-123.270;2024-01-30T02:07:35;6.00;;;3.88;;
64550;SDS011;74341;44.510;-123.270;2024-01-30T02:10:05;9.77;;;4.20;;
64550;SDS011;74341;44.510;-123.270;2024-01-30T02:12:35;5.60;;;3.90;;
64550;SDS011;74341;44.510;-123.270;2024-01-30T02:15:01;8.07;;;4.60;;
64550;SDS011;74341;44.510;-123.270;2024-01-30T02:17:27;4.57;;;3.40;;
64550;SDS011;74341;44.510;-123.270;2024-01-30T02:19:54;5.90;;;3.47;;
64550;SDS011;74341;44.510;-123.270;2024-01-30T02:22:20;4.97;;;4.10;;
64550;SDS011;74341;44.510;-123.270;2024-01-30T02:24:48;6.55;;;4.13;;
64550;SDS011;74341;44.510;-123.270;2024-01-30T02:27:14;7.07;;;4.32;;
64550;SDS011;74341;44.510;-123.270;2024-01-30T02:29:44;6.28;;;3.97;;
64550;SDS011;74341;44.510;-123.270;2024-01-30T02:32:10;8.88;;;4.38;;
64550;SDS011;74341;44.510;-123.270;2024-01-30T02:34:37;15.73;;;5.28;;
64550;SDS011;74341;44.510;-123.270;2024-01-30T02:37:03;14.23;;;5.38;;
64550;SDS011;74341;44.510;-123.270;2024-01-30T02:39:30;9.45;;;5.07;;
64550;SDS011;74341;44.510;-123.270;2024-01-30T02:41:56;9.68;;;5.80;;
64550;SDS011;74341;44.510;-123.270;2024-01-30T02:44:22;10.93;;;5.03;;
64550;SDS011;74341;44.510;-123.270;2024-01-30T02:46:49;11.98;;;6.70;;
64550;SDS011;74341;44.510;-123.270;2024-01-30T02:49:15;15.30;;;6.50;;
64550;SDS011;74341;44.510;-123.270;2024-01-30T02:51:42;30.42;;;9.23;;
64550;SDS011;74341;44.510;-123.270;2024-01-30T02:54:08;13.10;;;7.10;;
64550;SDS011;74341;44.510;-123.270;2024-01-30T02:56:35;23.55;;;9.25;;
64550;SDS011;74341;44.510;-123.270;2024-01-30T02:59:01;40.50;;;15.48;;
64550;SDS011;74341;44.510;-123.270;2024-01-30T03:01:27;21.23;;;13.82;;
64550;SDS011;74341;44.510;-123.270;2024-01-30T03:03:54;50.22;;;13.85;;
64550;SDS011;74341;44.510;-123.270;2024-01-30T03:06:20;19.58;;;11.88;;
64550;SDS011;74341;44.510;-123.270;2024-01-30T03:08:48;38.40;;;10.57;;
64550;SDS011;74341;44.510;-123.270;2024-01-30T03:11:14;20.85;;;10.40;;
64550;SDS011;74341;44.510;-123.270;2024-01-30T03:13:41;18.23;;;9.63;;
64550;SDS011;74341;44.510;-123.270;2024-01-30T03:16:08;20.38;;;9.43;;
64550;SDS011;74341;44.510;-123.270;2024-01-30T03:18:34;44.75;;;11.13;;
64550;SDS011;74341;44.510;-123.270;2024-01-30T03:21:01;16.52;;;9.50;;
64550;SDS011;74341;44.510;-123.270;2024-01-30T03:23:27;31.73;;;9.45;;
64550;SDS011;74341;44.510;-123.270;2024-01-30T03:25:53;19.05;;;9.82;;
64550;SDS011;74341;44.510;-123.270;2024-01-30T03:28:20;55.28;;;12.48;;
64550;SDS011;74341;44.510;-123.270;2024-01-30T03:30:46;28.60;;;12.48;;
64550;SDS011;74341;44.510;-123.270;2024-01-30T03:33:13;26.15;;;9.30;;
64550;SDS011;74341;44.510;-123.270;2024-01-30T03:35:39;22.23;;;8.55;;
64550;SDS011;74341;44.510;-123.270;2024-01-30T03:40:32;24.60;;;12.93;;
64550;SDS011;74341;44.510;-123.270;2024-01-30T03:42:58;41.28;;;9.70;;
64550;SDS011;74341;44.510;-123.270;2024-01-30T03:45:25;13.05;;;7.15;;
64550;SDS011;74341;44.510;-123.270;2024-01-30T03:47:51;23.98;;;8.73;;
64550;SDS011;74341;44.510;-123.270;2024-01-30T03:50:17;14.38;;;7.18;;
64550;SDS011;74341;44.510;-123.270;2024-01-30T03:52:44;32.63;;;7.28;;
64550;SDS011;74341;44.510;-123.270;2024-01-30T03:55:10;13.50;;;6.90;;
64550;SDS011;74341;44.510;-123.270;2024-01-30T03:57:36;16.17;;;7.95;;
64550;SDS011;74341;44.510;-123.270;2024-01-30T04:00:03;13.48;;;7.57;;
64550;SDS011;74341;44.510;-123.270;2024-01-30T04:02:30;50.97;;;8.85;;
64550;SDS011;74341;44.510;-123.270;2024-01-30T04:04:56;15.88;;;7.43;;
64550;SDS011;74341;44.510;-123.270;2024-01-30T04:07:24;14.82;;;6.93;;
64550;SDS011;74341;44.510;-123.270;2024-01-30T04:09:50;15.18;;;6.93;;
64550;SDS011;74341;44.510;-123.270;2024-01-30T04:12:16;13.75;;;7.03;;
64550;SDS011;74341;44.510;-123.270;2024-01-30T04:14:43;19.88;;;7.22;;
64550;SDS011;74341;44.510;-123.270;2024-01-30T04:17:09;14.85;;;6.90;;
64550;SDS011;74341;44.510;-123.270;2024-01-30T04:19:38;22.50;;;7.50;;
64550;SDS011;74341;44.510;-123.270;2024-01-30T04:22:05;12.63;;;6.45;;
64550;SDS011;74341;44.510;-123.270;2024-01-30T04:24:31;24.25;;;7.95;;
64550;SDS011;74341;44.510;-123.270;2024-01-30T04:26:58;13.05;;;6.00;;
64550;SDS011;74341;44.510;-123.270;2024-01-30T04:29:24;28.05;;;8.18;;
64550;SDS011;74341;44.510;-123.270;2024-01-30T04:31:50;33.58;;;7.03;;
64550;SDS011;74341;44.510;-123.270;2024-01-30T04:34:17;63.88;;;11.38;;
64550;SDS011;74341;44.510;-123.270;2024-01-30T04:36:44;14.38;;;6.60;;
64550;SDS011;74341;44.510;-123.270;2024-01-30T04:39:11;16.88;;;6.80;;
64550;SDS011;74341;44.510;-123.270;2024-01-30T04:41:38;57.67;;;8.23;;
64550;SDS011;74341;44.510;-123.270;2024-01-30T04:44:05;27.80;;;7.13;;
64550;SDS011;74341;44.510;-123.270;2024-01-30T04:48:59;10.30;;;5.13;;
64550;SDS011;74341;44.510;-123.270;2024-01-30T04:51:26;43.38;;;7.65;;
64550;SDS011;74341;44.510;-123.270;2024-01-30T04:53:52;14.63;;;6.20;;
64550;SDS011;74341;44.510;-123.270;2024-01-30T04:56:19;39.00;;;8.00;;
64550;SDS011;74341;44.510;-123.270;2024-01-30T04:58:45;39.35;;;7.97;;
64550;SDS011;74341;44.510;-123.270;2024-01-30T05:01:14;34.47;;;8.10;;
64550;SDS011;74341;44.510;-123.270;2024-01-30T05:03:41;13.68;;;6.38;;
64550;SDS011;74341;44.510;-123.270;2024-01-30T05:06:08;24.15;;;10.40;;
64550;SDS011;74341;44.510;-123.270;2024-01-30T05:08:34;27.10;;;10.48;;
64550;SDS011;74341;44.510;-123.270;2024-01-30T05:11:06;18.88;;;9.30;;
64550;SDS011;74341;44.510;-123.270;2024-01-30T05:13:33;17.92;;;7.90;;
64550;SDS011;74341;44.510;-123.270;2024-01-30T05:16:01;21.90;;;10.63;;
64550;SDS011;74341;44.510;-123.270;2024-01-30T05:18:29;15.20;;;7.22;;
64550;SDS011;74341;44.510;-123.270;2024-01-30T05:20:55;13.75;;;6.60;;
64550;SDS011;74341;44.510;-123.270;2024-01-30T05:23:22;13.57;;;6.00;;
64550;SDS011;74341;44.510;-123.270;2024-01-30T05:25:48;14.57;;;7.20;;
64550;SDS011;74341;44.510;-123.270;2024-01-30T05:28:14;62.08;;;8.43;;
64550;SDS011;74341;44.510;-123.270;2024-01-30T05:30:41;15.55;;;7.70;;
64550;SDS011;74341;44.510;-123.270;2024-01-30T05:33:07;17.85;;;8.75;;
64550;SDS011;74341;44.510;-123.270;2024-01-30T05:35:36;90.68;;;12.85;;
64550;SDS011;74341;44.510;-123.270;2024-01-30T05:38:02;65.75;;;32.47;;
64550;SDS011;74341;44.510;-123.270;2024-01-30T05:42:56;35.17;;;15.38;;
64550;SDS011;74341;44.510;-123.270;2024-01-30T05:45:26;22.73;;;8.60;;
64550;SDS011;74341;44.510;-123.270;2024-01-30T05:47:53;29.15;;;7.10;;
64550;SDS011;74341;44.510;-123.270;2024-01-30T05:50:20;13.77;;;7.35;;
64550;SDS011;74341;44.510;-123.270;2024-01-30T05:52:48;18.70;;;6.43;;
64550;SDS011;74341;44.510;-123.270;2024-01-30T05:55:15;22.75;;;11.63;;
64550;SDS011;74341;44.510;-123.270;2024-01-30T05:57:41;27.02;;;7.07;;
64550;SDS011;74341;44.510;-123.270;2024-01-30T06:00:07;14.10;;;5.47;;
64550;SDS011;74341;44.510;-123.270;2024-01-30T06:02:34;17.75;;;6.03;;
64550;SDS011;74341;44.510;-123.270;2024-01-30T06:05:00;72.30;;;16.13;;
64550;SDS011;74341;44.510;-123.270;2024-01-30T06:07:27;15.32;;;8.27;;
64550;SDS011;74341;44.510;-123.270;2024-01-30T06:09:53;17.38;;;7.28;;
64550;SDS011;74341;44.510;-123.270;2024-01-30T06:12:20;16.02;;;6.90;;
64550;SDS011;74341;44.510;-123.270;2024-01-30T06:14:46;87.75;;;19.55;;
64550;SDS011;74341;44.510;-123.270;2024-01-30T06:17:12;75.85;;;35.55;;
64550;SDS011;74341;44.510;-123.270;2024-01-30T06:19:39;55.35;;;28.30;;
64550;SDS011;74341;44.510;-123.270;2024-01-30T06:22:05;40.63;;;6.65;;
64550;SDS011;74341;44.510;-123.270;2024-01-30T06:24:32;60.03;;;13.32;;
64550;SDS011;74341;44.510;-123.270;2024-01-30T06:26:59;51.13;;;10.30;;
64550;SDS011;74341;44.510;-123.270;2024-01-30T06:29:26;79.03;;;12.48;;
64550;SDS011;74341;44.510;-123.270;2024-01-30T06:31:52;66.65;;;10.98;;
64550;SDS011;74341;44.510;-123.270;2024-01-30T06:34:19;101.30;;;17.50;;
64550;SDS011;74341;44.510;-123.270;2024-01-30T06:36:45;51.63;;;9.55;;
64550;SDS011;74341;44.510;-123.270;2024-01-30T06:39:11;58.85;;;12.68;;
64550;SDS011;74341;44.510;-123.270;2024-01-30T06:41:38;26.92;;;14.57;;
64550;SDS011;74341;44.510;-123.270;2024-01-30T06:44:04;59.38;;;12.48;;
64550;SDS011;74341;44.510;-123.270;2024-01-30T06:46:32;79.85;;;10.40;;
64550;SDS011;74341;44.510;-123.270;2024-01-30T06:48:58;105.82;;;11.88;;
64550;SDS011;74341;44.510;-123.270;2024-01-30T06:51:24;64.95;;;8.68;;
64550;SDS011;74341;44.510;-123.270;2024-01-30T06:53:51;72.05;;;9.02;;
64550;SDS011;74341;44.510;-123.270;2024-01-30T06:56:17;15.20;;;6.32;;
64550;SDS011;74341;44.510;-123.270;2024-01-30T06:58:50;9.60;;;5.78;;
64550;SDS011;74341;44.510;-123.270;2024-01-30T07:01:16;11.18;;;5.50;;
64550;SDS011;74341;44.510;-123.270;2024-01-30T07:03:43;84.05;;;10.35;;
64550;SDS011;74341;44.510;-123.270;2024-01-30T07:06:09;13.15;;;6.70;;
64550;SDS011;74341;44.510;-123.270;2024-01-30T07:08:36;13.65;;;7.18;;
64550;SDS011;74341;44.510;-123.270;2024-01-30T07:11:07;16.58;;;7.07;;
64550;SDS011;74341;44.510;-123.270;2024-01-30T07:13:34;11.23;;;5.78;;
64550;SDS011;74341;44.510;-123.270;2024-01-30T07:18:26;12.88;;;6.22;;
64550;SDS011;74341;44.510;-123.270;2024-01-30T07:20:52;20.75;;;6.65;;
64550;SDS011;74341;44.510;-123.270;2024-01-30T07:23:19;27.88;;;6.60;;
64550;SDS011;74341;44.510;-123.270;2024-01-30T07:25:45;10.02;;;5.97;;
64550;SDS011;74341;44.510;-123.270;2024-01-30T07:28:15;13.60;;;6.88;;
64550;SDS011;74341;44.510;-123.270;2024-01-30T07:30:45;16.65;;;6.97;;
64550;SDS011;74341;44.510;-123.270;2024-01-30T07:33:11;13.13;;;6.78;;
64550;SDS011;74341;44.510;-123.270;2024-01-30T07:35:37;13.95;;;8.23;;
64550;SDS011;74341;44.510;-123.270;2024-01-30T07:38:04;14.13;;;7.10;;
64550;SDS011;74341;44.510;-123.270;2024-01-30T07:40:30;14.93;;;7.20;;
64550;SDS011;74341;44.510;-123.270;2024-01-30T07:42:58;13.52;;;7.18;;
64550;SDS011;74341;44.510;-123.270;2024-01-30T07:45:26;12.40;;;7.05;;
64550;SDS011;74341;44.510;-123.270;2024-01-30T07:47:57;12.55;;;6.88;;
64550;SDS011;74341;44.510;-123.270;2024-01-30T07:50:25;11.63;;;6.07;;
64550;SDS011;74341;44.510;-123.270;2024-01-30T07:52:52;10.48;;;5.80;;
64550;SDS011;74341;44.510;-123.270;2024-01-30T07:55:23;11.50;;;6.55;;
64550;SDS011;74341;44.510;-123.270;2024-01-30T07:57:52;11.77;;;6.75;;
64550;SDS011;74341;44.510;-123.270;2024-01-30T08:00:20;13.38;;;6.75;;
64550;SDS011;74341;44.510;-123.270;2024-01-30T08:02:47;12.25;;;6.03;;
64550;SDS011;74341;44.510;-123.270;2024-01-30T08:05:14;9.68;;;5.75;;
64550;SDS011;74341;44.510;-123.270;2024-01-30T08:10:08;45.15;;;8.38;;
64550;SDS011;74341;44.510;-123.270;2024-01-30T08:12:34;17.17;;;6.80;;
64550;SDS011;74341;44.510;-123.270;2024-01-30T08:15:01;19.50;;;6.35;;
64550;SDS011;74341;44.510;-123.270;2024-01-30T08:17:28;38.15;;;7.15;;
64550;SDS011;74341;44.510;-123.270;2024-01-30T08:19:55;10.32;;;6.05;;
64550;SDS011;74341;44.510;-123.270;2024-01-30T08:22:21;49.75;;;7.78;;
64550;SDS011;74341;44.510;-123.270;2024-01-30T08:24:47;20.02;;;7.40;;
64550;SDS011;74341;44.510;-123.270;2024-01-30T08:27:13;17.65;;;6.70;;
64550;SDS011;74341;44.510;-123.270;2024-01-30T08:29:40;28.25;;;7.00;;
64550;SDS011;74341;44.510;-123.270;2024-01-30T08:32:06;11.35;;;6.30;;
64550;SDS011;74341;44.510;-123.270;2024-01-30T08:34:33;12.55;;;6.32;;
64550;SDS011;74341;44.510;-123.270;2024-01-30T08:37:00;11.38;;;6.00;;
64550;SDS011;74341;44.510;-123.270;2024-01-30T08:39:26;77.60;;;8.93;;
64550;SDS011;74341;44.510;-123.270;2024-01-30T08:41:52;11.60;;;5.40;;
64550;SDS011;74341;44.510;-123.270;2024-01-30T08:44:19;12.05;;;5.70;;
64550;SDS011;74341;44.510;-123.270;2024-01-30T08:46:45;8.90;;;6.00;;
64550;SDS011;74341;44.510;-123.270;2024-01-30T08:49:12;9.02;;;5.32;;
64550;SDS011;74341;44.510;-123.270;2024-01-30T08:51:39;9.20;;;5.53;;
64550;SDS011;74341;44.510;-123.270;2024-01-30T08:54:05;16.77;;;5.80;;
64550;SDS011;74341;44.510;-123.270;2024-01-30T08:56:32;10.90;;;5.57;;
64550;SDS011;74341;44.510;-123.270;2024-01-30T08:58:58;14.00;;;5.70;;
64550;SDS011;74341;44.510;-123.270;2024-01-30T09:01:25;10.52;;;5.70;;
64550;SDS011;74341;44.510;-123.270;2024-01-30T09:03:52;9.45;;;4.82;;
64550;SDS011;74341;44.510;-123.270;2024-01-30T09:06:18;12.40;;;4.93;;
64550;SDS011;74341;44.510;-123.270;2024-01-30T09:08:44;24.83;;;5.30;;
64550;SDS011;74341;44.510;-123.270;2024-01-30T09:11:11;8.35;;;4.53;;
64550;SDS011;74341;44.510;-123.270;2024-01-30T09:13:40;10.18;;;5.40;;
64550;SDS011;74341;44.510;-123.270;2024-01-30T09:16:07;11.35;;;5.55;;
64550;SDS011;74341;44.510;-123.270;2024-01-30T09:18:33;11.27;;;6.05;;
64550;SDS011;74341;44.510;-123.270;2024-01-30T09:20:59;6.57;;;4.47;;
64550;SDS011;74341;44.510;-123.270;2024-01-30T09:23:27;8.13;;;4.82;;
64550;SDS011;74341;44.510;-123.270;2024-01-30T09:25:53;33.13;;;6.13;;
64550;SDS011;74341;44.510;-123.270;2024-01-30T09:28:20;7.70;;;5.20;;
64550;SDS011;74341;44.510;-123.270;2024-01-30T09:30:47;9.45;;;5.50;;
64550;SDS011;74341;44.510;-123.270;2024-01-30T09:33:13;12.52;;;4.90;;
64550;SDS011;74341;44.510;-123.270;2024-01-30T09:35:40;35.55;;;6.00;;
64550;SDS011;74341;44.510;-123.270;2024-01-30T09:38:06;69.97;;;7.65;;
64550;SDS011;74341;44.510;-123.270;2024-01-30T09:40:32;29.55;;;6.13;;
64550;SDS011;74341;44.510;-123.270;2024-01-30T09:42:59;10.00;;;5.30;;
64550;SDS011;74341;44.510;-123.270;2024-01-30T09:45:26;8.75;;;5.57;;
64550;SDS011;74341;44.510;-123.270;2024-01-30T09:47:52;7.95;;;5.00;;
64550;SDS011;74341;44.510;-123.270;2024-01-30T09:50:19;11.25;;;4.95;;
64550;SDS011;74341;44.510;-123.270;2024-01-30T09:55:12;5.10;;;3.33;;
64550;SDS011;74341;44.510;-123.270;2024-01-30T09:57:39;6.57;;;3.78;;
64550;SDS011;74341;44.510;-123.270;2024-01-30T10:00:07;7.10;;;4.32;;
64550;SDS011;74341;44.510;-123.270;2024-01-30T10:02:36;9.48;;;5.57;;
64550;SDS011;74341;44.510;-123.270;2024-01-30T10:05:04;11.00;;;6.97;;
64550;SDS011;74341;44.510;-123.270;2024-01-30T10:07:31;10.25;;;6.13;;
64550;SDS011;74341;44.510;-123.270;2024-01-30T10:09:57;10.77;;;5.57;;
64550;SDS011;74341;44.510;-123.270;2024-01-30T10:12:26;24.63;;;7.43;;
64550;SDS011;74341;44.510;-123.270;2024-01-30T10:14:56;14.57;;;5.72;;
64550;SDS011;74341;44.510;-123.270;2024-01-30T10:17:25;11.43;;;6.10;;
64550;SDS011;74341;44.510;-123.270;2024-01-30T10:19:52;25.60;;;13.25;;
64550;SDS011;74341;44.510;-123.270;2024-01-30T10:22:18;22.20;;;9.68;;
64550;SDS011;74341;44.510;-123.270;2024-01-30T10:24:45;22.45;;;11.90;;
64550;SDS011;74341;44.510;-123.270;2024-01-30T10:27:12;17.80;;;10.20;;
64550;SDS011;74341;44.510;-123.270;2024-01-30T10:29:38;14.05;;;7.10;;
64550;SDS011;74341;44.510;-123.270;2024-01-30T10:32:04;29.48;;;14.60;;
64550;SDS011;74341;44.510;-123.270;2024-01-30T10:34:31;18.23;;;6.10;;
64550;SDS011;74341;44.510;-123.270;2024-01-30T10:37:00;16.33;;;8.63;;
64550;SDS011;74341;44.510;-123.270;2024-01-30T10:39:32;11.50;;;6.72;;
64550;SDS011;74341;44.510;-123.270;2024-01-30T10:42:04;32.38;;;6.40;;
64550;SDS011;74341;44.510;-123.270;2024-01-30T10:47:48;8.85;;;4.97;;
64550;SDS011;74341;44.510;-123.270;2024-01-30T10:50:16;7.13;;;4.85;;
64550;SDS011;74341;44.510;-123.270;2024-01-30T10:52:42;22.73;;;5.95;;
64550;SDS011;74341;44.510;-123.270;2024-01-30T10:55:09;17.98;;;5.57;;
64550;SDS011;74341;44.510;-123.270;2024-01-30T10:57:36;7.97;;;4.78;;
64550;SDS011;74341;44.510;-123.270;2024-01-30T11:00:04;11.40;;;5.43;;
64550;SDS011;74341;44.510;-123.270;2024-01-30T11:02:44;52.15;;;7.20;;
64550;SDS011;74341;44.510;-123.270;2024-01-30T11:05:11;25.27;;;5.47;;
64550;SDS011;74341;44.510;-123.270;2024-01-30T11:07:40;7.80;;;4.85;;
64550;SDS011;74341;44.510;-123.270;2024-01-30T11:10:07;101.47;;;12.35;;
64550;SDS011;74341;44.510;-123.270;2024-01-30T11:12:38;60.92;;;7.35;;
64550;SDS011;74341;44.510;-123.270;2024-01-30T11:15:10;50.30;;;8.40;;
64550;SDS011;74341;44.510;-123.270;2024-01-30T11:17:41;7.75;;;5.03;;
64550;SDS011;74341;44.510;-123.270;2024-01-30T11:20:25;10.68;;;5.20;;
64550;SDS011;74341;44.510;-123.270;2024-01-30T11:22:53;73.03;;;8.52;;
64550;SDS011;74341;44.510;-123.270;2024-01-30T11:25:22;33.25;;;6.00;;
64550;SDS011;74341;44.510;-123.270;2024-01-30T11:27:50;9.23;;;5.10;;
64550;SDS011;74341;44.510;-123.270;2024-01-30T11:35:32;70.03;;;8.15;;
64550;SDS011;74341;44.510;-123.270;2024-01-30T11:38:00;39.35;;;7.68;;
64550;SDS011;74341;44.510;-123.270;2024-01-30T11:40:28;10.30;;;5.63;;
64550;SDS011;74341;44.510;-123.270;2024-01-30T11:42:55;8.85;;;5.57;;
64550;SDS011;74341;44.510;-123.270;2024-01-30T11:45:23;8.88;;;5.53;;
64550;SDS011;74341;44.510;-123.270;2024-01-30T11:47:50;8.15;;;5.18;;
64550;SDS011;74341;44.510;-123.270;2024-01-30T11:50:16;25.23;;;5.30;;
64550;SDS011;74341;44.510;-123.270;2024-01-30T11:52:42;8.38;;;4.63;;
64550;SDS011;74341;44.510;-123.270;2024-01-30T11:55:09;7.82;;;4.85;;
64550;SDS011;74341;44.510;-123.270;2024-01-30T11:57:36;9.95;;;4.72;;
64550;SDS011;74341;44.510;-123.270;2024-01-30T12:00:03;44.80;;;6.28;;
64550;SDS011;74341;44.510;-123.270;2024-01-30T12:02:38;39.85;;;5.78;;
64550;SDS011;74341;44.510;-123.270;2024-01-30T12:05:07;5.53;;;3.95;;
64550;SDS011;74341;44.510;-123.270;2024-01-30T12:07:34;6.32;;;3.90;;
64550;SDS011;74341;44.510;-123.270;2024-01-30T12:10:02;8.23;;;4.57;;
64550;SDS011;74341;44.510;-123.270;2024-01-30T12:12:30;11.43;;;4.40;;
64550;SDS011;74341;44.510;-123.270;2024-01-30T12:14:57;6.03;;;4.18;;
64550;SDS011;74341;44.510;-123.270;2024-01-30T12:17:31;9.45;;;4.50;;
64550;SDS011;74341;44.510;-123.270;2024-01-30T12:20:33;14.70;;;4.63;;
64550;SDS011;74341;44.510;-123.270;2024-01-30T12:22:52;6.15;;;3.88;;
64550;SDS011;74341;44.510;-123.270;2024-01-30T12:25:20;5.22;;;3.85;;
64550;SDS011;74341;44.510;-123.270;2024-01-30T12:27:49;7.15;;;4.10;;
64550;SDS011;74341;44.510;-123.270;2024-01-30T12:30:16;6.00;;;3.70;;
64550;SDS011;74341;44.510;-123.270;2024-01-30T12:32:45;7.38;;;3.80;;
64550;SDS011;74341;44.510;-123.270;2024-01-30T12:35:13;6.68;;;4.53;;
64550;SDS011;74341;44.510;-123.270;2024-01-30T12:37:45;5.43;;;3.85;;
64550;SDS011;74341;44.510;-123.270;2024-01-30T12:40:13;6.38;;;3.78;;
64550;SDS011;74341;44.510;-123.270;2024-01-30T12:42:40;12.63;;;4.35;;
64550;SDS011;74341;44.510;-123.270;2024-01-30T12:45:08;7.88;;;4.07;;
64550;SDS011;74341;44.510;-123.270;2024-01-30T12:47:35;13.90;;;4.25;;
64550;SDS011;74341;44.510;-123.270;2024-01-30T12:50:01;11.75;;;4.50;;
64550;SDS011;74341;44.510;-123.270;2024-01-30T12:54:54;7.57;;;3.85;;
64550;SDS011;74341;44.510;-123.270;2024-01-30T12:57:20;5.03;;;3.42;;
64550;SDS011;74341;44.510;-123.270;2024-01-30T12:59:47;5.07;;;3.88;;
64550;SDS011;74341;44.510;-123.270;2024-01-30T13:02:14;5.57;;;3.70;;
64550;SDS011;74341;44.510;-123.270;2024-01-30T13:04:41;18.05;;;4.28;;
64550;SDS011;74341;44.510;-123.270;2024-01-30T13:07:08;7.63;;;4.10;;
64550;SDS011;74341;44.510;-123.270;2024-01-30T13:09:34;7.22;;;4.35;;
64550;SDS011;74341;44.510;-123.270;2024-01-30T13:12:01;16.60;;;3.83;;
64550;SDS011;74341;44.510;-123.270;2024-01-30T13:14:27;6.00;;;4.00;;
64550;SDS011;74341;44.510;-123.270;2024-01-30T13:16:54;22.48;;;4.72;;
64550;SDS011;74341;44.510;-123.270;2024-01-30T13:19:20;71.30;;;8.38;;
64550;SDS011;74341;44.510;-123.270;2024-01-30T13:21:46;79.28;;;9.30;;
64550;SDS011;74341;44.510;-123.270;2024-01-30T13:24:13;11.15;;;5.10;;
64550;SDS011;74341;44.510;-123.270;2024-01-30T13:26:40;10.07;;;4.50;;
64550;SDS011;74341;44.510;-123.270;2024-01-30T13:29:09;10.35;;;4.57;;
64550;SDS011;74341;44.510;-123.270;2024-01-30T13:31:35;10.20;;;4.30;;
64550;SDS011;74341;44.510;-123.270;2024-01-30T13:34:02;6.40;;;4.28;;
64550;SDS011;74341;44.510;-123.270;2024-01-30T13:36:28;5.85;;;3.78;;
64550;SDS011;74341;44.510;-123.270;2024-01-30T13:38:54;6.35;;;3.67;;
64550;SDS011;74341;44.510;-123.270;2024-01-30T13:41:21;6.07;;;3.30;;
64550;SDS011;74341;44.510;-123.270;2024-01-30T13:43:48;6.70;;;4.18;;
64550;SDS011;74341;44.510;-123.270;2024-01-30T13:46:14;7.35;;;4.57;;
64550;SDS011;74341;44.510;-123.270;2024-01-30T13:48:41;4.82;;;3.45;;
64550;SDS011;74341;44.510;-123.270;2024-01-30T13:51:07;4.07;;;3.50;;
64550;SDS011;74341;44.510;-123.270;2024-01-30T13:53:33;6.78;;;3.75;;
64550;SDS011;74341;44.510;-123.270;2024-01-30T13:56:00;5.55;;;3.42;;
64550;SDS011;74341;44.510;-123.270;2024-01-30T13:58:26;6.57;;;4.30;;
64550;SDS011;74341;44.510;-123.270;2024-01-30T14:00:52;7.45;;;4.32;;
64550;SDS011;74341;44.510;-123.270;2024-01-30T14:03:19;4.85;;;3.70;;
64550;SDS011;74341;44.510;-123.270;2024-01-30T14:05:45;8.52;;;5.65;;
64550;SDS011;74341;44.510;-123.270;2024-01-30T14:08:11;4.63;;;3.95;;
64550;SDS011;74341;44.510;-123.270;2024-01-30T14:10:38;8.00;;;4.35;;
64550;SDS011;74341;44.510;-123.270;2024-01-30T14:13:04;5.15;;;3.58;;
64550;SDS011;74341;44.510;-123.270;2024-01-30T14:15:30;7.13;;;3.97;;
64550;SDS011;74341;44.510;-123.270;2024-01-30T14:17:57;7.18;;;4.18;;
64550;SDS011;74341;44.510;-123.270;2024-01-30T14:20:23;8.38;;;4.75;;
64550;SDS011;74341;44.510;-123.270;2024-01-30T14:22:49;4.90;;;3.58;;
64550;SDS011;74341;44.510;-123.270;2024-01-30T14:25:16;7.47;;;4.00;;